Chem Venus — D5NX4 — position and weather

sailwx.info

Track history (hours):
 
Tides and Currents Weather Stations Pressure Air Temp Water Temp Dewpoint Dewpoint Depression Visibility Wind Speed Wind Dir Waves Ship Positions

Chem Venus

Last reported at 2018-Jun-19 04:06 UTC. Time now 2018-Jun-19 04:33 UTC.
Position N 50°09' W 002°05'.

Length 145 m; draft 9.5 m.

Type: Ship (hazmat cat B). MMSI: 636018039.

Date/timePositionNaut miles runAvg speedWind from/ knotsBaromVisibWave heightAir tempDewpointWater temp
2018-Jun-19 04:06N 50°09' W 002°05'114.3
2018-Jun-19 04:00N 50°09' W 002°03'4111.3
2018-Jun-19 00:23N 50°20' W 001°02'3 8.8
2018-Jun-19 00:00N 50°21' W 000°57'4 9.0
2018-Jun-18 23:30N 50°23' W 000°51'5 9.4
2018-Jun-18 23:00N 50°24' W 000°43'510.1
2018-Jun-18 22:29N 50°25' W 000°36'510.9
2018-Jun-18 22:00N 50°27' W 000°28'1312.1
2018-Jun-18 20:55N 50°31' W 000°08'612.9
2018-Jun-18 20:26N 50°32' E 000°02'713.4
2018-Jun-18 19:55N 50°34' E 000°12'513.4
2018-Jun-18 19:30N 50°35' E 000°21'713.5
2018-Jun-18 19:00N 50°37' E 000°31'713.2
2018-Jun-18 18:30N 50°41' E 000°40'612.7
2018-Jun-18 18:00N 50°44' E 000°48'612.2
2018-Jun-18 17:30N 50°48' E 000°56'611.4
2018-Jun-18 17:00N 50°51' E 001°03'510.9
2018-Jun-18 16:30N 50°55' E 001°10'510.2
2018-Jun-18 16:00N 50°58' E 001°16'5 9.5
2018-Jun-18 15:30N 51°01' E 001°22'5 9.5
2018-Jun-18 15:00N 51°04' E 001°28'510.3
2018-Jun-18 14:30N 51°07' E 001°34'510.9
2018-Jun-18 14:00N 51°11' E 001°41'611.6
2018-Jun-18 13:30N 51°15' E 001°47'713.4
2018-Jun-18 13:01N 51°21' E 001°51'714.1
2018-Jun-18 12:31N 51°27' E 001°57'714.4
2018-Jun-18 12:00N 51°32' E 002°05'714.4
2018-Jun-18 11:30N 51°37' E 002°14'714.6
2018-Jun-18 11:00N 51°43' E 002°21'714.0
2018-Jun-18 10:30N 51°48' E 002°29'813.0
2018-Jun-18 09:52N 51°56' E 002°34'23610.2
2018-Jun-17 10:43N 54°02' E 008°05'211.0
2018-Jun-17 10:29N 54°01' E 008°09'5 9.8
2018-Jun-17 10:00N 54°00' E 008°17'510.8
2018-Jun-17 09:30N 53°59' E 008°26'612.9
2018-Jun-17 09:00N 53°58' E 008°37'814.9
2018-Jun-17 08:30N 53°52' E 008°45'714.5
2018-Jun-17 08:00N 53°51' E 008°57'714.2
2018-Jun-17 07:31N 53°53' E 009°08'713.5
2018-Jun-17 07:01N 53°51' E 009°19'714.0
2018-Jun-17 06:30N 53°45' E 009°25'611.9
2018-Jun-17 06:00N 53°40' E 009°31'511.0
2018-Jun-17 05:30N 53°36' E 009°36'5 9.0
2018-Jun-17 05:00N 53°34' E 009°43'4 8.7
2018-Jun-17 04:30N 53°33' E 009°50'4 7.3
2018-Jun-17 04:00N 53°32' E 009°56'2 4.1
2018-Jun-17 03:29N 53°30' E 009°57'0 0.0
2018-Jun-17 03:00N 53°30' E 009°57'0 0.0
2018-Jun-17 02:30N 53°30' E 009°57'0 0.0
2018-Jun-17 02:00N 53°30' E 009°57'0 0.0
2018-Jun-17 01:29N 53°30' E 009°57'0 0.0
2018-Jun-17 01:00N 53°30' E 009°57'0 0.0
2018-Jun-17 00:26N 53°30' E 009°57'0 0.0
2018-Jun-17 00:00N 53°30' E 009°57'0 0.0
2018-Jun-16 23:29N 53°30' E 009°57'0 0.0
2018-Jun-16 22:59N 53°30' E 009°57'0 0.0
2018-Jun-16 22:29N 53°30' E 009°57'0 0.0
2018-Jun-16 21:59N 53°30' E 009°57'0 0.0
2018-Jun-16 21:30N 53°30' E 009°57'0 0.0
2018-Jun-16 20:59N 53°30' E 009°57'0 0.0
2018-Jun-16 20:26N 53°30' E 009°57'0 0.0
2018-Jun-16 19:59N 53°30' E 009°57'0 0.0
2018-Jun-16 19:29N 53°30' E 009°57'0 0.0
2018-Jun-16 18:59N 53°30' E 009°57'0 0.0
2018-Jun-16 18:26N 53°30' E 009°57'0 0.0
2018-Jun-16 18:00N 53°30' E 009°57'0 0.0
2018-Jun-16 17:17N 53°30' E 009°57'0 0.0
2018-Jun-16 16:48N 53°30' E 009°57'0 0.0
2018-Jun-16 16:23N 53°30' E 009°57'0 0.0
2018-Jun-16 16:00N 53°30' E 009°57'0 0.0
2018-Jun-16 15:30N 53°30' E 009°57'0 0.0
2018-Jun-16 14:59N 53°30' E 009°57'0 0.0
2018-Jun-16 14:30N 53°30' E 009°57'0 0.0
2018-Jun-16 14:00N 53°30' E 009°57'0 0.3
2018-Jun-16 13:30N 53°30' E 009°57'2 4.2
2018-Jun-16 13:01N 53°32' E 009°56'4 8.8
2018-Jun-16 12:30N 53°33' E 009°49'611.2
2018-Jun-16 12:00N 53°34' E 009°40'611.9
2018-Jun-16 11:30N 53°38' E 009°32'611.3
2018-Jun-16 11:00N 53°43' E 009°28'510.5
2018-Jun-16 10:30N 53°47' E 009°23'510.5
2018-Jun-16 10:00N 53°52' E 009°18'5 9.8
2018-Jun-16 09:30N 53°53' E 009°10'4 8.1
2018-Jun-16 09:00N 53°52' E 009°03'5 9.3
2018-Jun-16 08:30N 53°51' E 008°55'5 9.5
2018-Jun-16 08:00N 53°50' E 008°47'5 9.1
2018-Jun-16 07:30N 53°54' E 008°42'5 9.1
2018-Jun-16 07:00N 53°57' E 008°37'5 9.9
2018-Jun-16 06:29N 53°58' E 008°29'510.0
2018-Jun-16 06:00N 53°59' E 008°21'611.5
2018-Jun-16 05:30N 53°59' E 008°11'510.3
2018-Jun-16 05:00N 53°60' E 008°02'5 9.6
2018-Jun-16 04:30N 54°02' E 007°55'6 9.8
2018-Jun-16 03:50N 54°06' E 007°45'3 9.6
2018-Jun-16 03:29N 54°07' E 007°40'4 7.2
2018-Jun-16 02:56N 54°09' E 007°34'4 9.1
2018-Jun-16 02:28N 54°09' E 007°27'11312.3
2018-Jun-15 17:17N 53°45' E 004°19'413.0
2018-Jun-15 17:00N 53°43' E 004°14'612.8
2018-Jun-15 16:30N 53°39' E 004°05'612.8
2018-Jun-15 16:01N 53°35' E 003°57'713.1
2018-Jun-15 15:30N 53°31' E 003°48'713.5
2018-Jun-15 15:00N 53°25' E 003°42'713.1
2018-Jun-15 14:30N 53°19' E 003°38'612.5
2018-Jun-15 13:59N 53°13' E 003°33'612.5
2018-Jun-15 13:30N 53°08' E 003°29'612.2
2018-Jun-15 13:00N 53°02' E 003°25'612.0
2018-Jun-15 12:30N 52°57' E 003°22'611.6
2018-Jun-15 12:00N 52°51' E 003°18'611.4
2018-Jun-15 11:28N 52°46' E 003°14'511.1
2018-Jun-15 11:00N 52°41' E 003°10'610.9
2018-Jun-15 10:29N 52°36' E 003°06'510.7
2018-Jun-15 10:00N 52°32' E 003°02'510.6
2018-Jun-15 09:30N 52°27' E 002°57'510.3
2018-Jun-15 09:00N 52°22' E 002°54'611.3
2018-Jun-15 08:30N 52°19' E 003°01'611.9
2018-Jun-15 08:00N 52°16' E 003°10'611.9
2018-Jun-15 07:30N 52°13' E 003°18'612.1
2018-Jun-15 07:00N 52°10' E 003°27'612.3
2018-Jun-15 06:29N 52°07' E 003°36'612.2
2018-Jun-15 06:00N 52°04' E 003°44'611.4
2018-Jun-15 05:30N 52°02' E 003°53'5 9.3
2018-Jun-15 05:00N 52°00' E 003°60'511.0
2018-Jun-15 04:30N 51°58' E 004°08'3 6.9
2018-Jun-15 04:00N 51°56' E 004°12'0 0.0
2018-Jun-15 03:30N 51°56' E 004°12'0 0.0
2018-Jun-15 03:00N 51°56' E 004°12'0 0.0
2018-Jun-15 02:30N 51°56' E 004°12'0 0.0
2018-Jun-15 02:00N 51°56' E 004°12'0 0.0
2018-Jun-15 01:27N 51°56' E 004°12'0 0.0
2018-Jun-15 00:57N 51°56' E 004°12'0 0.0
2018-Jun-15 00:30N 51°56' E 004°12'0 0.0
2018-Jun-14 23:57N 51°56' E 004°12'0 0.0
2018-Jun-14 23:30N 51°56' E 004°12'0 0.0
2018-Jun-14 23:00N 51°56' E 004°12'0 0.0
2018-Jun-14 22:30N 51°56' E 004°12'0 0.0
2018-Jun-14 22:00N 51°56' E 004°12'0 0.0
2018-Jun-14 21:30N 51°56' E 004°12'0 0.0
2018-Jun-14 21:00N 51°56' E 004°12'0 0.0
2018-Jun-14 20:27N 51°56' E 004°12'0 0.0
2018-Jun-14 20:00N 51°56' E 004°12'0 0.0
2018-Jun-14 19:30N 51°56' E 004°12'0 0.0
2018-Jun-14 19:00N 51°56' E 004°12'0 0.0
2018-Jun-14 18:30N 51°56' E 004°12'0 0.0
2018-Jun-14 18:00N 51°56' E 004°12'0 0.0
2018-Jun-14 17:30N 51°56' E 004°12'0 0.0
2018-Jun-14 17:00N 51°56' E 004°12'0 0.0
2018-Jun-14 16:30N 51°56' E 004°12'0 0.0
2018-Jun-14 16:00N 51°56' E 004°12'0 0.0
2018-Jun-14 15:30N 51°56' E 004°12'0 0.0
2018-Jun-14 15:00N 51°56' E 004°12'0 0.0
2018-Jun-14 14:27N 51°56' E 004°12'0 0.0
2018-Jun-14 14:00N 51°56' E 004°12'0 0.0
2018-Jun-14 13:27N 51°56' E 004°12'0 0.0
2018-Jun-14 13:00N 51°56' E 004°12'0 0.0
2018-Jun-14 12:27N 51°56' E 004°12'0 0.0
2018-Jun-14 12:00N 51°56' E 004°12'0 0.0
2018-Jun-14 11:30N 51°56' E 004°12'0 0.0
2018-Jun-14 11:00N 51°56' E 004°12'0 0.0
2018-Jun-14 10:30N 51°56' E 004°12'0 0.0
2018-Jun-14 10:00N 51°56' E 004°12'0 0.0
2018-Jun-14 09:30N 51°56' E 004°12'0 0.0
2018-Jun-14 08:57N 51°56' E 004°12'0 0.0
2018-Jun-14 08:30N 51°56' E 004°12'0 0.0
2018-Jun-14 08:00N 51°56' E 004°12'0 0.0
2018-Jun-14 07:30N 51°56' E 004°12'0 0.0
2018-Jun-14 07:00N 51°56' E 004°12'0 0.0
2018-Jun-14 06:30N 51°56' E 004°12'0 0.0
2018-Jun-14 06:00N 51°56' E 004°12'0 0.0
2018-Jun-14 05:30N 51°56' E 004°12'0 0.0
2018-Jun-14 05:00N 51°56' E 004°12'0 0.0
2018-Jun-14 04:30N 51°56' E 004°12'0 0.0
2018-Jun-14 04:00N 51°56' E 004°12'0 0.0
2018-Jun-14 03:30N 51°56' E 004°12'0 0.0
2018-Jun-14 03:00N 51°56' E 004°12'0 0.0
2018-Jun-14 02:30N 51°56' E 004°12'0 0.0
2018-Jun-14 02:00N 51°56' E 004°12'0 0.0
2018-Jun-14 01:30N 51°56' E 004°12'0 0.0
2018-Jun-14 00:57N 51°56' E 004°12'0 0.0
2018-Jun-14 00:27N 51°56' E 004°12'0 0.0
2018-Jun-14 00:00N 51°56' E 004°12'0 0.0
2018-Jun-13 23:30N 51°56' E 004°12'0 0.0
2018-Jun-13 23:00N 51°56' E 004°12'0 0.0
2018-Jun-13 22:30N 51°56' E 004°12'0 0.0
2018-Jun-13 21:57N 51°56' E 004°12'0 0.0
2018-Jun-13 21:30N 51°56' E 004°12'0 0.0
2018-Jun-13 21:00N 51°56' E 004°12'0 0.0
2018-Jun-13 20:30N 51°56' E 004°12'0 0.0
2018-Jun-13 20:00N 51°56' E 004°12'0 0.0
2018-Jun-13 19:27N 51°56' E 004°12'0 0.0
2018-Jun-13 19:00N 51°56' E 004°12'0 0.0
2018-Jun-13 18:30N 51°56' E 004°12'0 0.0
2018-Jun-13 18:00N 51°56' E 004°12'0 0.0
2018-Jun-13 17:30N 51°56' E 004°12'0 0.0
2018-Jun-13 16:57N 51°56' E 004°12'0 0.0
2018-Jun-13 16:30N 51°56' E 004°12'0 0.0
2018-Jun-13 16:00N 51°56' E 004°12'0 0.0
2018-Jun-13 15:30N 51°56' E 004°12'0 0.0
2018-Jun-13 14:57N 51°56' E 004°12'0 0.0
2018-Jun-13 14:24N 51°56' E 004°12'0 0.0
2018-Jun-13 13:57N 51°56' E 004°12'0 0.0
2018-Jun-13 13:24N 51°56' E 004°12'0 0.0
2018-Jun-13 13:00N 51°56' E 004°12'0 0.0
2018-Jun-13 12:30N 51°56' E 004°12'0 0.0
2018-Jun-13 12:00N 51°56' E 004°12'0 0.0
2018-Jun-13 11:30N 51°56' E 004°12'0 0.0
2018-Jun-13 11:00N 51°56' E 004°12'0 0.0
2018-Jun-13 10:27N 51°56' E 004°12'0 0.0
2018-Jun-13 09:57N 51°56' E 004°12'0 0.0
2018-Jun-13 09:27N 51°56' E 004°12'0 0.0
2018-Jun-13 09:00N 51°56' E 004°12'0 0.0
2018-Jun-13 08:30N 51°56' E 004°12'0 0.0
2018-Jun-13 08:00N 51°56' E 004°12'0 0.0
2018-Jun-13 07:30N 51°56' E 004°12'0 0.0
2018-Jun-13 07:00N 51°56' E 004°12'0 0.0
2018-Jun-13 06:30N 51°56' E 004°12'0 0.0
2018-Jun-13 06:00N 51°56' E 004°12'0 0.0
2018-Jun-13 05:27N 51°56' E 004°12'0 0.0
2018-Jun-13 05:00N 51°56' E 004°12'0 0.0
2018-Jun-13 04:30N 51°56' E 004°12'0 0.0
2018-Jun-13 04:00N 51°56' E 004°12'0 0.0
2018-Jun-13 03:30N 51°56' E 004°12'0 0.0
2018-Jun-13 03:00N 51°56' E 004°12'0 0.0
2018-Jun-13 02:30N 51°56' E 004°12'0 0.0
2018-Jun-13 02:00N 51°56' E 004°12'0 0.0
2018-Jun-13 01:30N 51°56' E 004°12'0 0.0
2018-Jun-13 01:00N 51°56' E 004°12'0 0.0
2018-Jun-13 00:27N 51°56' E 004°12'0 0.0
2018-Jun-12 23:57N 51°56' E 004°12'0 0.0
2018-Jun-12 23:30N 51°56' E 004°12'0 0.0
2018-Jun-12 23:00N 51°56' E 004°12'0 0.0
2018-Jun-12 22:30N 51°56' E 004°12'0 0.0
2018-Jun-12 22:00N 51°56' E 004°12'0 0.0
2018-Jun-12 21:30N 51°56' E 004°12'0 0.0
2018-Jun-12 20:57N 51°56' E 004°12'0 0.0
2018-Jun-12 20:27N 51°56' E 004°12'0 0.0
2018-Jun-12 20:00N 51°56' E 004°12'0 0.0
2018-Jun-12 19:30N 51°56' E 004°12'0 0.0
2018-Jun-12 19:00N 51°56' E 004°12'0 0.0
2018-Jun-12 18:27N 51°56' E 004°12'0 0.0
2018-Jun-12 18:00N 51°56' E 004°12'0 0.0
2018-Jun-12 17:30N 51°56' E 004°12'0 0.0
2018-Jun-12 17:00N 51°56' E 004°12'0 0.0
2018-Jun-12 16:30N 51°56' E 004°12'0 0.0
2018-Jun-12 16:00N 51°56' E 004°12'0 0.0
2018-Jun-12 15:30N 51°56' E 004°12'0 0.0
2018-Jun-12 15:00N 51°56' E 004°12'0 0.0
2018-Jun-12 14:30N 51°56' E 004°12'0 0.0
2018-Jun-12 14:00N 51°56' E 004°12'0 0.0
2018-Jun-12 13:30N 51°56' E 004°12'0 0.0
2018-Jun-12 13:00N 51°56' E 004°12'0 0.0
2018-Jun-12 12:30N 51°56' E 004°12'0 0.0
2018-Jun-12 12:00N 51°56' E 004°12'0 0.0
2018-Jun-12 11:30N 51°56' E 004°12'0 0.0
2018-Jun-12 11:00N 51°56' E 004°12'0 0.0
2018-Jun-12 10:30N 51°56' E 004°12'0 0.0
2018-Jun-12 10:00N 51°56' E 004°12'0 0.0
2018-Jun-12 09:27N 51°56' E 004°12'0 0.0
2018-Jun-12 09:00N 51°56' E 004°12'0 0.0
2018-Jun-12 08:27N 51°56' E 004°12'0 0.0
2018-Jun-12 08:00N 51°56' E 004°12'0 0.0
2018-Jun-12 07:30N 51°56' E 004°12'0 0.0
2018-Jun-12 07:00N 51°56' E 004°12'0 0.0
2018-Jun-12 06:30N 51°56' E 004°12'0 0.0
2018-Jun-12 06:00N 51°56' E 004°12'0 0.0
2018-Jun-12 05:27N 51°56' E 004°12'0 0.0
2018-Jun-12 05:00N 51°56' E 004°12'0 0.1
2018-Jun-12 04:24N 51°56' E 004°12'0 0.0
2018-Jun-12 04:00N 51°56' E 004°12'0 0.0
2018-Jun-12 03:30N 51°56' E 004°12'0 0.0
2018-Jun-12 03:00N 51°56' E 004°12'0 0.0
2018-Jun-12 02:18N 51°56' E 004°12'0 0.0
2018-Jun-12 02:00N 51°56' E 004°12'0 0.0
2018-Jun-12 01:30N 51°56' E 004°12'0 0.0
2018-Jun-12 01:00N 51°56' E 004°12'0 0.0
2018-Jun-12 00:30N 51°56' E 004°12'0 0.0
2018-Jun-12 00:00N 51°56' E 004°12'0 0.0
2018-Jun-11 23:30N 51°56' E 004°12'0 0.0
2018-Jun-11 22:54N 51°56' E 004°12'0 0.0
2018-Jun-11 22:30N 51°56' E 004°12'0 0.0
2018-Jun-11 21:57N 51°56' E 004°12'0 0.0
2018-Jun-11 21:30N 51°56' E 004°12'0 0.0
2018-Jun-11 21:00N 51°56' E 004°12'0 0.0
2018-Jun-11 20:27N 51°56' E 004°12'0 0.0
2018-Jun-11 20:00N 51°56' E 004°12'0 0.0
2018-Jun-11 19:27N 51°56' E 004°12'0 0.0
2018-Jun-11 19:00N 51°56' E 004°12'0 0.0
2018-Jun-11 18:30N 51°56' E 004°12'0 0.0
2018-Jun-11 18:00N 51°56' E 004°12'0 0.0
2018-Jun-11 17:30N 51°56' E 004°12'0 0.0
2018-Jun-11 17:00N 51°56' E 004°12'0 0.0
2018-Jun-11 16:30N 51°56' E 004°12'0 0.0
2018-Jun-11 15:57N 51°56' E 004°12'0 0.0
2018-Jun-11 15:30N 51°56' E 004°12'0 0.0
2018-Jun-11 15:00N 51°56' E 004°12'0 0.0
2018-Jun-11 14:30N 51°56' E 004°12'0 0.0
2018-Jun-11 14:00N 51°56' E 004°12'0 0.0
2018-Jun-11 13:30N 51°56' E 004°12'0 0.0
2018-Jun-11 12:57N 51°56' E 004°12'0 0.0
2018-Jun-11 12:30N 51°56' E 004°12'0 0.0
2018-Jun-11 11:54N 51°56' E 004°12'0 0.0
2018-Jun-11 11:30N 51°56' E 004°12'0 0.0
2018-Jun-11 11:00N 51°56' E 004°12'0 0.0
2018-Jun-11 10:30N 51°56' E 004°12'0 0.0
2018-Jun-11 10:00N 51°56' E 004°12'0 0.0
2018-Jun-11 09:15N 51°56' E 004°12'0 0.0
2018-Jun-11 09:00N 51°56' E 004°12'0 0.0
2018-Jun-11 08:30N 51°56' E 004°12'0 0.0
2018-Jun-11 08:00N 51°56' E 004°12'0 0.0
2018-Jun-11 07:30N 51°56' E 004°12'0 0.0
2018-Jun-11 06:54N 51°56' E 004°12'0 0.0
2018-Jun-11 06:30N 51°56' E 004°12'0 0.0
2018-Jun-11 05:57N 51°56' E 004°12'0 0.0
2018-Jun-11 05:27N 51°56' E 004°12'0 0.0
2018-Jun-11 05:00N 51°56' E 004°12'0 0.0
2018-Jun-11 04:30N 51°56' E 004°12'0 0.0
2018-Jun-11 04:00N 51°56' E 004°12'0 0.0
2018-Jun-11 03:30N 51°56' E 004°12'0 0.0
2018-Jun-11 02:57N 51°56' E 004°12'0 0.0
2018-Jun-11 02:30N 51°56' E 004°12'0 0.0
2018-Jun-11 02:00N 51°56' E 004°12'0 0.0
2018-Jun-11 01:30N 51°56' E 004°12'0 0.0
2018-Jun-11 00:57N 51°56' E 004°12'0 0.0
2018-Jun-11 00:30N 51°56' E 004°12'0 0.0
2018-Jun-11 00:00N 51°56' E 004°12'0 0.0
2018-Jun-10 23:30N 51°56' E 004°12'0 0.0
2018-Jun-10 23:00N 51°56' E 004°12'0 0.0
2018-Jun-10 22:30N 51°56' E 004°12'0 0.0
2018-Jun-10 22:00N 51°56' E 004°12'0 0.0
2018-Jun-10 21:27N 51°56' E 004°12'0 0.0
2018-Jun-10 21:00N 51°56' E 004°12'0 0.0
2018-Jun-10 20:30N 51°56' E 004°12'0 0.0
2018-Jun-10 20:00N 51°56' E 004°12'0 0.0
2018-Jun-10 19:30N 51°56' E 004°12'0 0.0
2018-Jun-10 18:57N 51°56' E 004°12'0 0.0
2018-Jun-10 18:30N 51°56' E 004°12'0 0.0
2018-Jun-10 18:00N 51°56' E 004°12'0 0.0
2018-Jun-10 17:30N 51°56' E 004°12'0 0.0
2018-Jun-10 17:00N 51°56' E 004°12'0 0.0
2018-Jun-10 16:30N 51°56' E 004°12'0 0.0
2018-Jun-10 15:57N 51°56' E 004°12'0 0.0
2018-Jun-10 15:30N 51°56' E 004°12'0 0.0
2018-Jun-10 15:00N 51°56' E 004°12'0 0.0
2018-Jun-10 14:30N 51°56' E 004°12'0 0.0
2018-Jun-10 13:27N 51°56' E 004°12'0 0.0
2018-Jun-10 13:00N 51°56' E 004°12'0 0.0
2018-Jun-10 12:30N 51°56' E 004°12'0 0.0
2018-Jun-10 12:00N 51°56' E 004°12'0 0.0
2018-Jun-10 11:30N 51°56' E 004°12'0 0.0
2018-Jun-10 11:00N 51°56' E 004°12'0 0.0
2018-Jun-10 10:27N 51°56' E 004°12'0 0.0
2018-Jun-10 10:00N 51°56' E 004°12'0 0.0
2018-Jun-10 09:27N 51°56' E 004°12'0 0.0
2018-Jun-10 09:00N 51°56' E 004°12'0 0.0
2018-Jun-10 08:27N 51°56' E 004°12'0 0.0
2018-Jun-10 08:00N 51°56' E 004°12'0 0.0
2018-Jun-10 07:30N 51°56' E 004°12'0 0.0
2018-Jun-10 07:00N 51°56' E 004°12'0 0.0
2018-Jun-10 06:27N 51°56' E 004°12'0 0.0
2018-Jun-10 06:00N 51°56' E 004°12'0 0.0
2018-Jun-10 05:30N 51°56' E 004°12'0 0.0
2018-Jun-10 05:00N 51°56' E 004°12'0 0.0
2018-Jun-10 04:30N 51°56' E 004°12'0 0.0
2018-Jun-10 03:57N 51°56' E 004°12'0 0.0
2018-Jun-10 03:27N 51°56' E 004°12'0 0.0
2018-Jun-10 03:00N 51°56' E 004°12'0 0.0
2018-Jun-10 02:30N 51°56' E 004°12'0 0.0
2018-Jun-10 02:00N 51°56' E 004°12'0 0.0
2018-Jun-10 01:30N 51°56' E 004°12'0 0.0
2018-Jun-10 01:00N 51°56' E 004°12'0 0.0
2018-Jun-10 00:30N 51°56' E 004°12'0 0.0
2018-Jun-10 00:00N 51°56' E 004°12'0 0.0
2018-Jun-09 23:30N 51°56' E 004°12'0 0.0
2018-Jun-09 23:00N 51°56' E 004°12'0 0.0
2018-Jun-09 22:30N 51°56' E 004°12'0 0.0
2018-Jun-09 22:00N 51°56' E 004°12'0 0.0
2018-Jun-09 21:30N 51°56' E 004°12'0 0.0
2018-Jun-09 21:00N 51°56' E 004°12'0 0.0
2018-Jun-09 20:27N 51°56' E 004°12'0 0.0
2018-Jun-09 20:00N 51°56' E 004°12'0 0.0
2018-Jun-09 19:30N 51°56' E 004°12'0 0.0
2018-Jun-09 19:00N 51°56' E 004°12'0 0.0
2018-Jun-09 18:30N 51°56' E 004°12'0 0.0
2018-Jun-09 18:00N 51°56' E 004°12'0 0.0
2018-Jun-09 17:27N 51°56' E 004°12'0 0.0
2018-Jun-09 17:00N 51°56' E 004°12'0 0.0
2018-Jun-09 16:27N 51°56' E 004°12'0 0.0
2018-Jun-09 16:00N 51°56' E 004°12'0 0.0
2018-Jun-09 15:00N 51°56' E 004°12'0 0.0
2018-Jun-09 14:30N 51°56' E 004°12'0 0.0
2018-Jun-09 13:57N 51°56' E 004°12'0 0.0
2018-Jun-09 13:30N 51°56' E 004°12'0 0.0
2018-Jun-09 13:00N 51°56' E 004°12'0 0.0
2018-Jun-09 12:30N 51°56' E 004°12'0 0.0
2018-Jun-09 12:00N 51°56' E 004°12'0 0.0
2018-Jun-09 11:30N 51°56' E 004°12'0 0.0
2018-Jun-09 11:00N 51°56' E 004°12'0 0.0
2018-Jun-09 10:27N 51°56' E 004°12'0 0.0
2018-Jun-09 10:00N 51°56' E 004°12'0 0.0
2018-Jun-09 09:27N 51°56' E 004°12'0 0.0
2018-Jun-09 09:00N 51°56' E 004°12'0 0.0
2018-Jun-09 08:27N 51°56' E 004°12'0 0.0
2018-Jun-09 08:00N 51°56' E 004°12'0 0.0
2018-Jun-09 07:30N 51°56' E 004°12'0 0.0
2018-Jun-09 07:00N 51°56' E 004°12'0 0.0
2018-Jun-09 06:27N 51°56' E 004°12'0 0.0
2018-Jun-09 05:57N 51°56' E 004°12'0 0.0
2018-Jun-09 05:24N 51°56' E 004°12'0 0.0
2018-Jun-09 04:54N 51°56' E 004°12'0 0.0
2018-Jun-09 04:27N 51°56' E 004°12'  
Track history (hours):
 
Tides and Currents Weather Stations Pressure Air Temp Water Temp Dewpoint Dewpoint Depression Visibility Wind Speed Wind Dir Waves Ship Positions

Chem Venus

Last reported at 2018-Jun-19 04:06 UTC. Time now 2018-Jun-19 04:33 UTC.
Position N 50°09' W 002°05'.

Length 145 m; draft 9.5 m.

Type: Ship (hazmat cat B). MMSI: 636018039.

Date/timePositionNaut miles runAvg speedWind from/ knotsBaromVisibWave heightAir tempDewpointWater temp
2018-Jun-19 04:06N 50°09' W 002°05'114.3
2018-Jun-19 04:00N 50°09' W 002°03'4111.3
2018-Jun-19 00:23N 50°20' W 001°02'3 8.8
2018-Jun-19 00:00N 50°21' W 000°57'4 9.0
2018-Jun-18 23:30N 50°23' W 000°51'5 9.4
2018-Jun-18 23:00N 50°24' W 000°43'510.1
2018-Jun-18 22:29N 50°25' W 000°36'510.9
2018-Jun-18 22:00N 50°27' W 000°28'1312.1
2018-Jun-18 20:55N 50°31' W 000°08'612.9
2018-Jun-18 20:26N 50°32' E 000°02'713.4
2018-Jun-18 19:55N 50°34' E 000°12'513.4
2018-Jun-18 19:30N 50°35' E 000°21'713.5
2018-Jun-18 19:00N 50°37' E 000°31'713.2
2018-Jun-18 18:30N 50°41' E 000°40'612.7
2018-Jun-18 18:00N 50°44' E 000°48'612.2
2018-Jun-18 17:30N 50°48' E 000°56'611.4
2018-Jun-18 17:00N 50°51' E 001°03'510.9
2018-Jun-18 16:30N 50°55' E 001°10'510.2
2018-Jun-18 16:00N 50°58' E 001°16'5 9.5
2018-Jun-18 15:30N 51°01' E 001°22'5 9.5
2018-Jun-18 15:00N 51°04' E 001°28'510.3
2018-Jun-18 14:30N 51°07' E 001°34'510.9
2018-Jun-18 14:00N 51°11' E 001°41'611.6
2018-Jun-18 13:30N 51°15' E 001°47'713.4
2018-Jun-18 13:01N 51°21' E 001°51'714.1
2018-Jun-18 12:31N 51°27' E 001°57'714.4
2018-Jun-18 12:00N 51°32' E 002°05'714.4
2018-Jun-18 11:30N 51°37' E 002°14'714.6
2018-Jun-18 11:00N 51°43' E 002°21'714.0
2018-Jun-18 10:30N 51°48' E 002°29'813.0
2018-Jun-18 09:52N 51°56' E 002°34'23610.2
2018-Jun-17 10:43N 54°02' E 008°05'211.0
2018-Jun-17 10:29N 54°01' E 008°09'5 9.8
2018-Jun-17 10:00N 54°00' E 008°17'510.8
2018-Jun-17 09:30N 53°59' E 008°26'612.9
2018-Jun-17 09:00N 53°58' E 008°37'814.9
2018-Jun-17 08:30N 53°52' E 008°45'714.5
2018-Jun-17 08:00N 53°51' E 008°57'714.2
2018-Jun-17 07:31N 53°53' E 009°08'713.5
2018-Jun-17 07:01N 53°51' E 009°19'714.0
2018-Jun-17 06:30N 53°45' E 009°25'611.9
2018-Jun-17 06:00N 53°40' E 009°31'511.0
2018-Jun-17 05:30N 53°36' E 009°36'5 9.0
2018-Jun-17 05:00N 53°34' E 009°43'4 8.7
2018-Jun-17 04:30N 53°33' E 009°50'4 7.3
2018-Jun-17 04:00N 53°32' E 009°56'2 4.1
2018-Jun-17 03:29N 53°30' E 009°57'0 0.0
2018-Jun-17 03:00N 53°30' E 009°57'0 0.0
2018-Jun-17 02:30N 53°30' E 009°57'0 0.0
2018-Jun-17 02:00N 53°30' E 009°57'0 0.0
2018-Jun-17 01:29N 53°30' E 009°57'0 0.0
2018-Jun-17 01:00N 53°30' E 009°57'0 0.0
2018-Jun-17 00:26N 53°30' E 009°57'0 0.0
2018-Jun-17 00:00N 53°30' E 009°57'0 0.0
2018-Jun-16 23:29N 53°30' E 009°57'0 0.0
2018-Jun-16 22:59N 53°30' E 009°57'0 0.0
2018-Jun-16 22:29N 53°30' E 009°57'0 0.0
2018-Jun-16 21:59N 53°30' E 009°57'0 0.0
2018-Jun-16 21:30N 53°30' E 009°57'0 0.0
2018-Jun-16 20:59N 53°30' E 009°57'0 0.0
2018-Jun-16 20:26N 53°30' E 009°57'0 0.0
2018-Jun-16 19:59N 53°30' E 009°57'0 0.0
2018-Jun-16 19:29N 53°30' E 009°57'0 0.0
2018-Jun-16 18:59N 53°30' E 009°57'0 0.0
2018-Jun-16 18:26N 53°30' E 009°57'0 0.0
2018-Jun-16 18:00N 53°30' E 009°57'0 0.0
2018-Jun-16 17:17N 53°30' E 009°57'0 0.0
2018-Jun-16 16:48N 53°30' E 009°57'0 0.0
2018-Jun-16 16:23N 53°30' E 009°57'0 0.0
2018-Jun-16 16:00N 53°30' E 009°57'0 0.0
2018-Jun-16 15:30N 53°30' E 009°57'0 0.0
2018-Jun-16 14:59N 53°30' E 009°57'0 0.0
2018-Jun-16 14:30N 53°30' E 009°57'0 0.0
2018-Jun-16 14:00N 53°30' E 009°57'0 0.3
2018-Jun-16 13:30N 53°30' E 009°57'2 4.2
2018-Jun-16 13:01N 53°32' E 009°56'4 8.8
2018-Jun-16 12:30N 53°33' E 009°49'611.2
2018-Jun-16 12:00N 53°34' E 009°40'611.9
2018-Jun-16 11:30N 53°38' E 009°32'611.3
2018-Jun-16 11:00N 53°43' E 009°28'510.5
2018-Jun-16 10:30N 53°47' E 009°23'510.5
2018-Jun-16 10:00N 53°52' E 009°18'5 9.8
2018-Jun-16 09:30N 53°53' E 009°10'4 8.1
2018-Jun-16 09:00N 53°52' E 009°03'5 9.3
2018-Jun-16 08:30N 53°51' E 008°55'5 9.5
2018-Jun-16 08:00N 53°50' E 008°47'5 9.1
2018-Jun-16 07:30N 53°54' E 008°42'5 9.1
2018-Jun-16 07:00N 53°57' E 008°37'5 9.9
2018-Jun-16 06:29N 53°58' E 008°29'510.0
2018-Jun-16 06:00N 53°59' E 008°21'611.5
2018-Jun-16 05:30N 53°59' E 008°11'510.3
2018-Jun-16 05:00N 53°60' E 008°02'5 9.6
2018-Jun-16 04:30N 54°02' E 007°55'6 9.8
2018-Jun-16 03:50N 54°06' E 007°45'3 9.6
2018-Jun-16 03:29N 54°07' E 007°40'4 7.2
2018-Jun-16 02:56N 54°09' E 007°34'4 9.1
2018-Jun-16 02:28N 54°09' E 007°27'11312.3
2018-Jun-15 17:17N 53°45' E 004°19'413.0
2018-Jun-15 17:00N 53°43' E 004°14'612.8
2018-Jun-15 16:30N 53°39' E 004°05'612.8
2018-Jun-15 16:01N 53°35' E 003°57'713.1
2018-Jun-15 15:30N 53°31' E 003°48'713.5
2018-Jun-15 15:00N 53°25' E 003°42'713.1
2018-Jun-15 14:30N 53°19' E 003°38'612.5
2018-Jun-15 13:59N 53°13' E 003°33'612.5
2018-Jun-15 13:30N 53°08' E 003°29'612.2
2018-Jun-15 13:00N 53°02' E 003°25'612.0
2018-Jun-15 12:30N 52°57' E 003°22'611.6
2018-Jun-15 12:00N 52°51' E 003°18'611.4
2018-Jun-15 11:28N 52°46' E 003°14'511.1
2018-Jun-15 11:00N 52°41' E 003°10'610.9
2018-Jun-15 10:29N 52°36' E 003°06'510.7
2018-Jun-15 10:00N 52°32' E 003°02'510.6
2018-Jun-15 09:30N 52°27' E 002°57'510.3
2018-Jun-15 09:00N 52°22' E 002°54'611.3
2018-Jun-15 08:30N 52°19' E 003°01'611.9
2018-Jun-15 08:00N 52°16' E 003°10'611.9
2018-Jun-15 07:30N 52°13' E 003°18'612.1
2018-Jun-15 07:00N 52°10' E 003°27'612.3
2018-Jun-15 06:29N 52°07' E 003°36'612.2
2018-Jun-15 06:00N 52°04' E 003°44'611.4
2018-Jun-15 05:30N 52°02' E 003°53'5 9.3
2018-Jun-15 05:00N 52°00' E 003°60'511.0
2018-Jun-15 04:30N 51°58' E 004°08'3 6.9
2018-Jun-15 04:00N 51°56' E 004°12'0 0.0
2018-Jun-15 03:30N 51°56' E 004°12'0 0.0
2018-Jun-15 03:00N 51°56' E 004°12'0 0.0
2018-Jun-15 02:30N 51°56' E 004°12'0 0.0
2018-Jun-15 02:00N 51°56' E 004°12'0 0.0
2018-Jun-15 01:27N 51°56' E 004°12'0 0.0
2018-Jun-15 00:57N 51°56' E 004°12'0 0.0
2018-Jun-15 00:30N 51°56' E 004°12'0 0.0
2018-Jun-14 23:57N 51°56' E 004°12'0 0.0
2018-Jun-14 23:30N 51°56' E 004°12'0 0.0
2018-Jun-14 23:00N 51°56' E 004°12'0 0.0
2018-Jun-14 22:30N 51°56' E 004°12'0 0.0
2018-Jun-14 22:00N 51°56' E 004°12'0 0.0
2018-Jun-14 21:30N 51°56' E 004°12'0 0.0
2018-Jun-14 21:00N 51°56' E 004°12'0 0.0
2018-Jun-14 20:27N 51°56' E 004°12'0 0.0
2018-Jun-14 20:00N 51°56' E 004°12'0 0.0
2018-Jun-14 19:30N 51°56' E 004°12'0 0.0
2018-Jun-14 19:00N 51°56' E 004°12'0 0.0
2018-Jun-14 18:30N 51°56' E 004°12'0 0.0
2018-Jun-14 18:00N 51°56' E 004°12'0 0.0
2018-Jun-14 17:30N 51°56' E 004°12'0 0.0
2018-Jun-14 17:00N 51°56' E 004°12'0 0.0
2018-Jun-14 16:30N 51°56' E 004°12'0 0.0
2018-Jun-14 16:00N 51°56' E 004°12'0 0.0
2018-Jun-14 15:30N 51°56' E 004°12'0 0.0
2018-Jun-14 15:00N 51°56' E 004°12'0 0.0
2018-Jun-14 14:27N 51°56' E 004°12'0 0.0
2018-Jun-14 14:00N 51°56' E 004°12'0 0.0
2018-Jun-14 13:27N 51°56' E 004°12'0 0.0
2018-Jun-14 13:00N 51°56' E 004°12'0 0.0
2018-Jun-14 12:27N 51°56' E 004°12'0 0.0
2018-Jun-14 12:00N 51°56' E 004°12'0 0.0
2018-Jun-14 11:30N 51°56' E 004°12'0 0.0
2018-Jun-14 11:00N 51°56' E 004°12'0 0.0
2018-Jun-14 10:30N 51°56' E 004°12'0 0.0
2018-Jun-14 10:00N 51°56' E 004°12'0 0.0
2018-Jun-14 09:30N 51°56' E 004°12'0 0.0
2018-Jun-14 08:57N 51°56' E 004°12'0 0.0
2018-Jun-14 08:30N 51°56' E 004°12'0 0.0
2018-Jun-14 08:00N 51°56' E 004°12'0 0.0
2018-Jun-14 07:30N 51°56' E 004°12'0 0.0
2018-Jun-14 07:00N 51°56' E 004°12'0 0.0
2018-Jun-14 06:30N 51°56' E 004°12'0 0.0
2018-Jun-14 06:00N 51°56' E 004°12'0 0.0
2018-Jun-14 05:30N 51°56' E 004°12'0 0.0
2018-Jun-14 05:00N 51°56' E 004°12'0 0.0
2018-Jun-14 04:30N 51°56' E 004°12'0 0.0
2018-Jun-14 04:00N 51°56' E 004°12'0 0.0
2018-Jun-14 03:30N 51°56' E 004°12'0 0.0
2018-Jun-14 03:00N 51°56' E 004°12'0 0.0
2018-Jun-14 02:30N 51°56' E 004°12'0 0.0
2018-Jun-14 02:00N 51°56' E 004°12'0 0.0
2018-Jun-14 01:30N 51°56' E 004°12'0 0.0
2018-Jun-14 00:57N 51°56' E 004°12'0 0.0
2018-Jun-14 00:27N 51°56' E 004°12'0 0.0
2018-Jun-14 00:00N 51°56' E 004°12'0 0.0
2018-Jun-13 23:30N 51°56' E 004°12'0 0.0
2018-Jun-13 23:00N 51°56' E 004°12'0 0.0
2018-Jun-13 22:30N 51°56' E 004°12'0 0.0
2018-Jun-13 21:57N 51°56' E 004°12'0 0.0
2018-Jun-13 21:30N 51°56' E 004°12'0 0.0
2018-Jun-13 21:00N 51°56' E 004°12'0 0.0
2018-Jun-13 20:30N 51°56' E 004°12'0 0.0
2018-Jun-13 20:00N 51°56' E 004°12'0 0.0
2018-Jun-13 19:27N 51°56' E 004°12'0 0.0
2018-Jun-13 19:00N 51°56' E 004°12'0 0.0
2018-Jun-13 18:30N 51°56' E 004°12'0 0.0
2018-Jun-13 18:00N 51°56' E 004°12'0 0.0
2018-Jun-13 17:30N 51°56' E 004°12'0 0.0
2018-Jun-13 16:57N 51°56' E 004°12'0 0.0
2018-Jun-13 16:30N 51°56' E 004°12'0 0.0
2018-Jun-13 16:00N 51°56' E 004°12'0 0.0
2018-Jun-13 15:30N 51°56' E 004°12'0 0.0
2018-Jun-13 14:57N 51°56' E 004°12'0 0.0
2018-Jun-13 14:24N 51°56' E 004°12'0 0.0
2018-Jun-13 13:57N 51°56' E 004°12'0 0.0
2018-Jun-13 13:24N 51°56' E 004°12'0 0.0
2018-Jun-13 13:00N 51°56' E 004°12'0 0.0
2018-Jun-13 12:30N 51°56' E 004°12'0 0.0
2018-Jun-13 12:00N 51°56' E 004°12'0 0.0
2018-Jun-13 11:30N 51°56' E 004°12'0 0.0
2018-Jun-13 11:00N 51°56' E 004°12'0 0.0
2018-Jun-13 10:27N 51°56' E 004°12'0 0.0
2018-Jun-13 09:57N 51°56' E 004°12'0 0.0
2018-Jun-13 09:27N 51°56' E 004°12'0 0.0
2018-Jun-13 09:00N 51°56' E 004°12'0 0.0
2018-Jun-13 08:30N 51°56' E 004°12'0 0.0
2018-Jun-13 08:00N 51°56' E 004°12'0 0.0
2018-Jun-13 07:30N 51°56' E 004°12'0 0.0
2018-Jun-13 07:00N 51°56' E 004°12'0 0.0
2018-Jun-13 06:30N 51°56' E 004°12'0 0.0
2018-Jun-13 06:00N 51°56' E 004°12'0 0.0
2018-Jun-13 05:27N 51°56' E 004°12'0 0.0
2018-Jun-13 05:00N 51°56' E 004°12'0 0.0
2018-Jun-13 04:30N 51°56' E 004°12'0 0.0
2018-Jun-13 04:00N 51°56' E 004°12'0 0.0
2018-Jun-13 03:30N 51°56' E 004°12'0 0.0
2018-Jun-13 03:00N 51°56' E 004°12'0 0.0
2018-Jun-13 02:30N 51°56' E 004°12'0 0.0
2018-Jun-13 02:00N 51°56' E 004°12'0 0.0
2018-Jun-13 01:30N 51°56' E 004°12'0 0.0
2018-Jun-13 01:00N 51°56' E 004°12'0 0.0
2018-Jun-13 00:27N 51°56' E 004°12'0 0.0
2018-Jun-12 23:57N 51°56' E 004°12'0 0.0
2018-Jun-12 23:30N 51°56' E 004°12'0 0.0
2018-Jun-12 23:00N 51°56' E 004°12'0 0.0
2018-Jun-12 22:30N 51°56' E 004°12'0 0.0
2018-Jun-12 22:00N 51°56' E 004°12'0 0.0
2018-Jun-12 21:30N 51°56' E 004°12'0 0.0
2018-Jun-12 20:57N 51°56' E 004°12'0 0.0
2018-Jun-12 20:27N 51°56' E 004°12'0 0.0
2018-Jun-12 20:00N 51°56' E 004°12'0 0.0
2018-Jun-12 19:30N 51°56' E 004°12'0 0.0
2018-Jun-12 19:00N 51°56' E 004°12'0 0.0
2018-Jun-12 18:27N 51°56' E 004°12'0 0.0
2018-Jun-12 18:00N 51°56' E 004°12'0 0.0
2018-Jun-12 17:30N 51°56' E 004°12'0 0.0
2018-Jun-12 17:00N 51°56' E 004°12'0 0.0
2018-Jun-12 16:30N 51°56' E 004°12'0 0.0
2018-Jun-12 16:00N 51°56' E 004°12'0 0.0
2018-Jun-12 15:30N 51°56' E 004°12'0 0.0
2018-Jun-12 15:00N 51°56' E 004°12'0 0.0
2018-Jun-12 14:30N 51°56' E 004°12'0 0.0
2018-Jun-12 14:00N 51°56' E 004°12'0 0.0
2018-Jun-12 13:30N 51°56' E 004°12'0 0.0
2018-Jun-12 13:00N 51°56' E 004°12'0 0.0
2018-Jun-12 12:30N 51°56' E 004°12'0 0.0
2018-Jun-12 12:00N 51°56' E 004°12'0 0.0
2018-Jun-12 11:30N 51°56' E 004°12'0 0.0
2018-Jun-12 11:00N 51°56' E 004°12'0 0.0
2018-Jun-12 10:30N 51°56' E 004°12'0 0.0
2018-Jun-12 10:00N 51°56' E 004°12'0 0.0
2018-Jun-12 09:27N 51°56' E 004°12'0 0.0
2018-Jun-12 09:00N 51°56' E 004°12'0 0.0
2018-Jun-12 08:27N 51°56' E 004°12'0 0.0
2018-Jun-12 08:00N 51°56' E 004°12'0 0.0
2018-Jun-12 07:30N 51°56' E 004°12'0 0.0
2018-Jun-12 07:00N 51°56' E 004°12'0 0.0
2018-Jun-12 06:30N 51°56' E 004°12'0 0.0
2018-Jun-12 06:00N 51°56' E 004°12'0 0.0
2018-Jun-12 05:27N 51°56' E 004°12'0 0.0
2018-Jun-12 05:00N 51°56' E 004°12'0 0.1
2018-Jun-12 04:24N 51°56' E 004°12'0 0.0
2018-Jun-12 04:00N 51°56' E 004°12'0 0.0
2018-Jun-12 03:30N 51°56' E 004°12'0 0.0
2018-Jun-12 03:00N 51°56' E 004°12'0 0.0
2018-Jun-12 02:18N 51°56' E 004°12'0 0.0
2018-Jun-12 02:00N 51°56' E 004°12'0 0.0
2018-Jun-12 01:30N 51°56' E 004°12'0 0.0
2018-Jun-12 01:00N 51°56' E 004°12'0 0.0
2018-Jun-12 00:30N 51°56' E 004°12'0 0.0
2018-Jun-12 00:00N 51°56' E 004°12'0 0.0
2018-Jun-11 23:30N 51°56' E 004°12'0 0.0
2018-Jun-11 22:54N 51°56' E 004°12'0 0.0
2018-Jun-11 22:30N 51°56' E 004°12'0 0.0
2018-Jun-11 21:57N 51°56' E 004°12'0 0.0
2018-Jun-11 21:30N 51°56' E 004°12'0 0.0
2018-Jun-11 21:00N 51°56' E 004°12'0 0.0
2018-Jun-11 20:27N 51°56' E 004°12'0 0.0
2018-Jun-11 20:00N 51°56' E 004°12'0 0.0
2018-Jun-11 19:27N 51°56' E 004°12'0 0.0
2018-Jun-11 19:00N 51°56' E 004°12'0 0.0
2018-Jun-11 18:30N 51°56' E 004°12'0 0.0
2018-Jun-11 18:00N 51°56' E 004°12'0 0.0
2018-Jun-11 17:30N 51°56' E 004°12'0 0.0
2018-Jun-11 17:00N 51°56' E 004°12'0 0.0
2018-Jun-11 16:30N 51°56' E 004°12'0 0.0
2018-Jun-11 15:57N 51°56' E 004°12'0 0.0
2018-Jun-11 15:30N 51°56' E 004°12'0 0.0
2018-Jun-11 15:00N 51°56' E 004°12'0 0.0
2018-Jun-11 14:30N 51°56' E 004°12'0 0.0
2018-Jun-11 14:00N 51°56' E 004°12'0 0.0
2018-Jun-11 13:30N 51°56' E 004°12'0 0.0
2018-Jun-11 12:57N 51°56' E 004°12'0 0.0
2018-Jun-11 12:30N 51°56' E 004°12'0 0.0
2018-Jun-11 11:54N 51°56' E 004°12'0 0.0
2018-Jun-11 11:30N 51°56' E 004°12'0 0.0
2018-Jun-11 11:00N 51°56' E 004°12'0 0.0
2018-Jun-11 10:30N 51°56' E 004°12'0 0.0
2018-Jun-11 10:00N 51°56' E 004°12'0 0.0
2018-Jun-11 09:15N 51°56' E 004°12'0 0.0
2018-Jun-11 09:00N 51°56' E 004°12'0 0.0
2018-Jun-11 08:30N 51°56' E 004°12'0 0.0
2018-Jun-11 08:00N 51°56' E 004°12'0 0.0
2018-Jun-11 07:30N 51°56' E 004°12'0 0.0
2018-Jun-11 06:54N 51°56' E 004°12'0 0.0
2018-Jun-11 06:30N 51°56' E 004°12'0 0.0
2018-Jun-11 05:57N 51°56' E 004°12'0 0.0
2018-Jun-11 05:27N 51°56' E 004°12'0 0.0
2018-Jun-11 05:00N 51°56' E 004°12'0 0.0
2018-Jun-11 04:30N 51°56' E 004°12'0 0.0
2018-Jun-11 04:00N 51°56' E 004°12'0 0.0
2018-Jun-11 03:30N 51°56' E 004°12'0 0.0
2018-Jun-11 02:57N 51°56' E 004°12'0 0.0
2018-Jun-11 02:30N 51°56' E 004°12'0 0.0
2018-Jun-11 02:00N 51°56' E 004°12'0 0.0
2018-Jun-11 01:30N 51°56' E 004°12'0 0.0
2018-Jun-11 00:57N 51°56' E 004°12'0 0.0
2018-Jun-11 00:30N 51°56' E 004°12'0 0.0
2018-Jun-11 00:00N 51°56' E 004°12'0 0.0
2018-Jun-10 23:30N 51°56' E 004°12'0 0.0
2018-Jun-10 23:00N 51°56' E 004°12'0 0.0
2018-Jun-10 22:30N 51°56' E 004°12'0 0.0
2018-Jun-10 22:00N 51°56' E 004°12'0 0.0
2018-Jun-10 21:27N 51°56' E 004°12'0 0.0
2018-Jun-10 21:00N 51°56' E 004°12'0 0.0
2018-Jun-10 20:30N 51°56' E 004°12'0 0.0
2018-Jun-10 20:00N 51°56' E 004°12'0 0.0
2018-Jun-10 19:30N 51°56' E 004°12'0 0.0
2018-Jun-10 18:57N 51°56' E 004°12'0 0.0
2018-Jun-10 18:30N 51°56' E 004°12'0 0.0
2018-Jun-10 18:00N 51°56' E 004°12'0 0.0
2018-Jun-10 17:30N 51°56' E 004°12'0 0.0
2018-Jun-10 17:00N 51°56' E 004°12'0 0.0
2018-Jun-10 16:30N 51°56' E 004°12'0 0.0
2018-Jun-10 15:57N 51°56' E 004°12'0 0.0
2018-Jun-10 15:30N 51°56' E 004°12'0 0.0
2018-Jun-10 15:00N 51°56' E 004°12'0 0.0
2018-Jun-10 14:30N 51°56' E 004°12'0 0.0
2018-Jun-10 13:27N 51°56' E 004°12'0 0.0
2018-Jun-10 13:00N 51°56' E 004°12'0 0.0
2018-Jun-10 12:30N 51°56' E 004°12'0 0.0
2018-Jun-10 12:00N 51°56' E 004°12'0 0.0
2018-Jun-10 11:30N 51°56' E 004°12'0 0.0
2018-Jun-10 11:00N 51°56' E 004°12'0 0.0
2018-Jun-10 10:27N 51°56' E 004°12'0 0.0
2018-Jun-10 10:00N 51°56' E 004°12'0 0.0
2018-Jun-10 09:27N 51°56' E 004°12'0 0.0
2018-Jun-10 09:00N 51°56' E 004°12'0 0.0
2018-Jun-10 08:27N 51°56' E 004°12'0 0.0
2018-Jun-10 08:00N 51°56' E 004°12'0 0.0
2018-Jun-10 07:30N 51°56' E 004°12'0 0.0
2018-Jun-10 07:00N 51°56' E 004°12'0 0.0
2018-Jun-10 06:27N 51°56' E 004°12'0 0.0
2018-Jun-10 06:00N 51°56' E 004°12'0 0.0
2018-Jun-10 05:30N 51°56' E 004°12'0 0.0
2018-Jun-10 05:00N 51°56' E 004°12'0 0.0
2018-Jun-10 04:30N 51°56' E 004°12'0 0.0
2018-Jun-10 03:57N 51°56' E 004°12'0 0.0
2018-Jun-10 03:27N 51°56' E 004°12'0 0.0
2018-Jun-10 03:00N 51°56' E 004°12'0 0.0
2018-Jun-10 02:30N 51°56' E 004°12'0 0.0
2018-Jun-10 02:00N 51°56' E 004°12'0 0.0
2018-Jun-10 01:30N 51°56' E 004°12'0 0.0
2018-Jun-10 01:00N 51°56' E 004°12'0 0.0
2018-Jun-10 00:30N 51°56' E 004°12'0 0.0
2018-Jun-10 00:00N 51°56' E 004°12'0 0.0
2018-Jun-09 23:30N 51°56' E 004°12'0 0.0
2018-Jun-09 23:00N 51°56' E 004°12'0 0.0
2018-Jun-09 22:30N 51°56' E 004°12'0 0.0
2018-Jun-09 22:00N 51°56' E 004°12'0 0.0
2018-Jun-09 21:30N 51°56' E 004°12'0 0.0
2018-Jun-09 21:00N 51°56' E 004°12'0 0.0
2018-Jun-09 20:27N 51°56' E 004°12'0 0.0
2018-Jun-09 20:00N 51°56' E 004°12'0 0.0
2018-Jun-09 19:30N 51°56' E 004°12'0 0.0
2018-Jun-09 19:00N 51°56' E 004°12'0 0.0
2018-Jun-09 18:30N 51°56' E 004°12'0 0.0
2018-Jun-09 18:00N 51°56' E 004°12'0 0.0
2018-Jun-09 17:27N 51°56' E 004°12'0 0.0
2018-Jun-09 17:00N 51°56' E 004°12'0 0.0
2018-Jun-09 16:27N 51°56' E 004°12'0 0.0
2018-Jun-09 16:00N 51°56' E 004°12'0 0.0
2018-Jun-09 15:00N 51°56' E 004°12'0 0.0
2018-Jun-09 14:30N 51°56' E 004°12'0 0.0
2018-Jun-09 13:57N 51°56' E 004°12'0 0.0
2018-Jun-09 13:30N 51°56' E 004°12'0 0.0
2018-Jun-09 13:00N 51°56' E 004°12'0 0.0
2018-Jun-09 12:30N 51°56' E 004°12'0 0.0
2018-Jun-09 12:00N 51°56' E 004°12'0 0.0
2018-Jun-09 11:30N 51°56' E 004°12'0 0.0
2018-Jun-09 11:00N 51°56' E 004°12'0 0.0
2018-Jun-09 10:27N 51°56' E 004°12'0 0.0
2018-Jun-09 10:00N 51°56' E 004°12'0 0.0
2018-Jun-09 09:27N 51°56' E 004°12'0 0.0
2018-Jun-09 09:00N 51°56' E 004°12'0 0.0
2018-Jun-09 08:27N 51°56' E 004°12'0 0.0
2018-Jun-09 08:00N 51°56' E 004°12'0 0.0
2018-Jun-09 07:30N 51°56' E 004°12'0 0.0
2018-Jun-09 07:00N 51°56' E 004°12'0 0.0
2018-Jun-09 06:27N 51°56' E 004°12'0 0.0
2018-Jun-09 05:57N 51°56' E 004°12'0 0.0
2018-Jun-09 05:24N 51°56' E 004°12'0 0.0
2018-Jun-09 04:54N 51°56' E 004°12'0 0.0
2018-Jun-09 04:27N 51°56' E 004°12'  

Dump ship's entire track history